createdAt,value
2023-08-21T00:00:27.765Z,55.80
2023-08-21T00:05:32.493Z,55.70
2023-08-21T00:10:35.691Z,56.30
2023-08-21T00:15:39.979Z,57.10
2023-08-21T00:20:45.672Z,58.20
2023-08-21T00:25:49.634Z,57.80
2023-08-21T00:30:52.889Z,57.40
2023-08-21T00:35:57.525Z,57.80
2023-08-21T00:41:00.753Z,57.60
2023-08-21T00:46:04.346Z,57.20
2023-08-21T00:51:09.102Z,58.20
2023-08-21T00:56:12.373Z,58.50
2023-08-21T01:01:17.475Z,59.10
2023-08-21T01:06:22.646Z,59.10
2023-08-21T01:11:31.177Z,59.40
2023-08-21T01:16:34.969Z,59.00
2023-08-21T01:21:39.540Z,58.80
2023-08-21T01:26:44.159Z,59.70
2023-08-21T01:31:52.092Z,61.10
2023-08-21T01:36:55.526Z,61.80
2023-08-21T01:42:01.321Z,62.50
2023-08-21T01:47:05.584Z,62.70
2023-08-21T01:52:08.841Z,62.40
2023-08-21T01:57:13.432Z,62.70
2023-08-21T02:02:16.693Z,63.00
2023-08-21T02:07:19.911Z,63.70
2023-08-21T02:12:24.596Z,62.80
2023-08-21T02:17:28.571Z,62.90
2023-08-21T02:22:31.769Z,63.60
2023-08-21T02:27:36.419Z,64.00
2023-08-21T02:32:41.540Z,65.60
2023-08-21T02:37:45.130Z,65.40
2023-08-21T02:42:49.764Z,64.50
2023-08-21T02:47:53.022Z,64.10
2023-08-21T02:52:56.256Z,64.30
2023-08-21T02:58:00.838Z,64.80
2023-08-21T03:03:04.250Z,64.60
2023-08-21T03:08:07.703Z,66.10
2023-08-21T03:13:12.366Z,67.50
2023-08-21T03:18:15.604Z,68.10
2023-08-21T03:23:18.835Z,68.30
2023-08-21T03:28:23.625Z,67.50
2023-08-21T03:33:26.987Z,67.80
2023-08-21T03:38:30.231Z,67.00
2023-08-21T03:43:34.904Z,67.00
2023-08-21T03:48:38.171Z,69.10
2023-08-21T03:53:41.363Z,69.30
2023-08-21T03:58:46.045Z,69.70
2023-08-21T04:03:49.236Z,70.70
2023-08-21T04:08:52.532Z,70.90
2023-08-21T04:13:57.104Z,69.40
2023-08-21T04:19:00.761Z,70.50
2023-08-21T04:24:03.931Z,70.90
2023-08-21T04:29:08.486Z,71.00
2023-08-21T04:34:11.729Z,71.30
2023-08-21T04:39:14.954Z,71.00
2023-08-21T04:44:20.008Z,71.30
2023-08-21T04:49:23.266Z,71.50
2023-08-21T04:54:26.659Z,71.30
2023-08-21T04:59:31.251Z,71.60
2023-08-21T05:04:34.643Z,71.20
2023-08-21T05:09:37.880Z,69.20
2023-08-21T05:14:42.526Z,67.70
2023-08-21T05:19:45.781Z,65.50
2023-08-21T05:24:49.057Z,62.60
2023-08-21T05:29:53.804Z,61.60
2023-08-21T05:34:57.001Z,62.00
2023-08-21T05:40:00.339Z,60.90
2023-08-21T05:45:05.450Z,58.20
2023-08-21T05:50:10.179Z,58.70
2023-08-21T05:55:13.582Z,55.90
2023-08-21T06:00:19.227Z,52.70
2023-08-21T06:05:22.429Z,54.60
2023-08-21T06:10:25.721Z,53.40
2023-08-21T06:15:30.388Z,52.60
2023-08-21T06:20:33.745Z,51.80
2023-08-21T06:25:38.638Z,51.70
2023-08-21T06:30:43.338Z,51.90
2023-08-21T06:35:46.770Z,51.00
2023-08-21T06:40:49.958Z,49.50
2023-08-21T06:45:54.651Z,48.80
2023-08-21T06:50:58.091Z,47.60
2023-08-21T06:56:01.312Z,46.30
2023-08-21T07:01:06.060Z,45.40
2023-08-21T07:06:09.461Z,44.30
2023-08-21T07:11:15.125Z,43.40
2023-08-21T07:16:20.050Z,42.10
2023-08-21T07:21:33.128Z,42.30
2023-08-21T07:26:37.421Z,41.70
2023-08-21T07:31:42.010Z,40.60
2023-08-21T07:36:45.500Z,40.50
2023-08-21T07:41:48.697Z,40.60
2023-08-21T07:46:53.419Z,40.20
2023-08-21T07:51:57.118Z,39.50
2023-08-21T07:57:00.339Z,39.60
2023-08-21T08:02:05.674Z,40.50
2023-08-21T08:07:09.019Z,40.60
2023-08-21T08:12:12.359Z,41.10
2023-08-21T08:17:17.550Z,40.80
2023-08-21T08:22:20.905Z,40.30
2023-08-21T08:27:24.289Z,41.10
2023-08-21T08:32:29.179Z,40.60
2023-08-21T08:37:32.537Z,39.70
2023-08-21T08:42:36.895Z,39.80
2023-08-21T08:47:43.179Z,39.70
2023-08-21T08:52:46.703Z,39.60
2023-08-21T08:57:49.867Z,38.90
2023-08-21T09:02:54.517Z,38.40
2023-08-21T09:08:13.759Z,37.90
2023-08-21T09:13:18.311Z,37.70
2023-08-21T09:18:23.004Z,36.90
2023-08-21T09:23:26.246Z,36.70
2023-08-21T09:28:29.875Z,36.60
2023-08-21T09:33:35.844Z,36.10
2023-08-21T09:38:41.922Z,35.40
2023-08-21T09:43:45.316Z,34.90
2023-08-21T09:48:50.439Z,34.70
2023-08-21T09:53:56.013Z,34.10
2023-08-21T09:58:59.317Z,33.70
2023-08-21T10:04:04.695Z,34.10
2023-08-21T10:09:08.816Z,34.30
2023-08-21T10:14:12.787Z,33.00
2023-08-21T10:19:19.865Z,33.40
2023-08-21T10:24:36.711Z,32.60
2023-08-21T10:29:41.208Z,33.00
2023-08-21T10:34:54.162Z,32.60
2023-08-21T10:39:58.287Z,32.10
2023-08-21T10:45:12.893Z,32.30
2023-08-21T10:50:17.495Z,31.90
2023-08-21T10:55:21.089Z,31.70
2023-08-21T11:00:25.415Z,31.20
2023-08-21T11:05:30.536Z,30.70
2023-08-21T11:10:34.500Z,30.60
2023-08-21T11:15:37.755Z,30.30
2023-08-21T11:20:44.347Z,30.10
2023-08-21T11:25:48.399Z,29.70
2023-08-21T11:30:51.936Z,29.20
2023-08-21T11:35:58.542Z,29.20
2023-08-21T11:41:03.541Z,28.90
2023-08-21T11:46:07.407Z,28.30
2023-08-21T11:51:12.222Z,28.00
2023-08-21T11:56:16.738Z,27.50
2023-08-21T12:01:20.333Z,26.70
2023-08-21T12:06:26.666Z,26.50
2023-08-21T12:11:30.113Z,24.60
2023-08-21T12:16:33.331Z,25.20
2023-08-21T12:21:38.962Z,25.20
2023-08-21T12:26:50.390Z,24.10
2023-08-21T12:31:54.487Z,24.80
2023-08-21T12:36:59.243Z,23.50
2023-08-21T12:42:02.748Z,23.80
2023-08-21T12:47:06.260Z,22.90
2023-08-21T12:52:11.151Z,22.90
2023-08-21T12:57:15.380Z,22.60
2023-08-21T13:02:18.699Z,23.00
2023-08-21T13:07:23.855Z,22.80
2023-08-21T13:12:27.897Z,22.80
2023-08-21T13:17:31.386Z,22.80
2023-08-21T13:22:48.292Z,22.60
2023-08-21T13:27:52.075Z,22.70
2023-08-21T13:32:55.553Z,22.70
2023-08-21T13:38:01.116Z,22.80
2023-08-21T13:43:04.658Z,22.90
2023-08-21T13:48:08.470Z,23.10
2023-08-21T13:53:16.130Z,22.90
2023-08-21T13:58:19.617Z,22.80
2023-08-21T14:03:22.886Z,22.30
2023-08-21T14:08:27.720Z,21.90
2023-08-21T14:13:31.095Z,22.10
2023-08-21T14:18:34.446Z,22.10
2023-08-21T14:23:40.446Z,21.70
2023-08-21T14:28:45.792Z,21.60
2023-08-21T14:33:49.171Z,21.50
2023-08-21T14:38:54.180Z,21.70
2023-08-21T14:43:57.670Z,21.90
2023-08-21T14:49:01.188Z,21.80
2023-08-21T14:54:06.495Z,21.50
2023-08-21T14:59:12.058Z,21.90
2023-08-21T15:04:15.405Z,21.80
2023-08-21T15:09:20.643Z,22.30
2023-08-21T15:14:23.899Z,22.60
2023-08-21T15:19:27.156Z,22.80
2023-08-21T15:24:31.804Z,23.00
2023-08-21T15:29:35.058Z,22.80
2023-08-21T15:34:38.302Z,23.40
2023-08-21T15:39:43.028Z,23.70
2023-08-21T15:44:46.313Z,23.60
2023-08-21T15:49:49.583Z,23.70
2023-08-21T15:54:54.656Z,23.20
2023-08-21T15:59:58.036Z,23.50
2023-08-21T16:05:01.468Z,23.10
2023-08-21T16:10:07.231Z,24.40
2023-08-21T16:15:11.076Z,24.40
2023-08-21T16:20:16.962Z,25.00
2023-08-21T16:25:22.070Z,25.60
2023-08-21T16:30:25.528Z,27.40
2023-08-21T16:35:28.853Z,28.10
2023-08-21T16:40:34.126Z,28.00
2023-08-21T16:45:37.521Z,27.70
2023-08-21T16:50:41.240Z,27.80
2023-08-21T16:55:46.073Z,28.00
2023-08-21T17:00:49.751Z,28.00
2023-08-21T17:05:53.159Z,28.50
2023-08-21T17:10:57.947Z,28.70
2023-08-21T17:16:01.398Z,28.80
2023-08-21T17:21:04.817Z,29.10
2023-08-21T17:26:09.507Z,29.40
2023-08-21T17:31:12.814Z,29.70
2023-08-21T17:36:16.034Z,29.90
2023-08-21T17:41:20.600Z,30.00
2023-08-21T17:46:24.236Z,30.10
2023-08-21T17:51:27.469Z,30.10
2023-08-21T17:56:32.865Z,30.60
2023-08-21T18:01:36.183Z,31.00
2023-08-21T18:06:39.866Z,31.30
2023-08-21T18:11:44.866Z,31.40
2023-08-21T18:16:50.386Z,31.90
2023-08-21T18:21:53.930Z,32.10
2023-08-21T18:26:58.524Z,32.30
2023-08-21T18:32:01.832Z,33.10
2023-08-21T18:37:05.251Z,34.40
2023-08-21T18:42:10.025Z,35.10
2023-08-21T18:47:13.371Z,35.30
2023-08-21T18:52:16.843Z,36.00
2023-08-21T18:57:21.614Z,36.90
2023-08-21T19:02:25.456Z,38.00
2023-08-21T19:07:28.828Z,37.80
2023-08-21T19:12:33.557Z,37.40
2023-08-21T19:17:37.385Z,37.80
2023-08-21T19:22:42.021Z,38.70
2023-08-21T19:27:47.754Z,39.40
2023-08-21T19:32:53.277Z,39.20
2023-08-21T19:37:56.616Z,40.90
2023-08-21T19:43:01.330Z,41.30
2023-08-21T19:48:05.013Z,41.90
2023-08-21T19:53:08.338Z,42.20
2023-08-21T19:58:13.409Z,42.80
2023-08-21T20:03:16.778Z,43.40
2023-08-21T20:08:24.329Z,43.50
2023-08-21T20:13:29.475Z,44.30
2023-08-21T20:18:32.688Z,44.50
2023-08-21T20:23:36.747Z,45.50
2023-08-21T20:28:41.301Z,46.30
2023-08-21T20:33:44.469Z,45.50
2023-08-21T20:38:47.724Z,45.60
2023-08-21T20:43:52.646Z,46.30
2023-08-21T20:48:55.970Z,47.10
2023-08-21T20:53:59.313Z,47.40
2023-08-21T20:59:04.044Z,47.60
2023-08-21T21:04:07.290Z,47.90
2023-08-21T21:09:10.588Z,48.20
2023-08-21T21:14:15.135Z,48.60
2023-08-21T21:19:18.430Z,49.40
2023-08-21T21:24:21.970Z,50.70
2023-08-21T21:29:26.865Z,51.00
2023-08-21T21:34:30.410Z,51.40
2023-08-21T21:39:34.171Z,51.70
2023-08-21T21:44:38.853Z,51.60
2023-08-21T21:49:42.132Z,51.80
2023-08-21T21:54:45.398Z,52.40
2023-08-21T21:59:50.136Z,53.20
2023-08-21T22:04:53.752Z,53.60
2023-08-21T22:09:57.547Z,54.50
2023-08-21T22:15:02.152Z,54.90
2023-08-21T22:20:06.750Z,55.10
2023-08-21T22:25:10.484Z,55.10
2023-08-21T22:30:15.779Z,56.60
2023-08-21T22:35:19.315Z,57.40
2023-08-21T22:40:26.035Z,57.30
2023-08-21T22:45:30.557Z,57.60
2023-08-21T22:50:33.785Z,57.40
2023-08-21T22:55:37.762Z,57.50
2023-08-21T23:00:42.968Z,57.60
2023-08-21T23:05:53.738Z,57.10
2023-08-21T23:10:57.017Z,58.60
2023-08-21T23:16:02.040Z,59.20
2023-08-21T23:21:06.343Z,59.50
2023-08-21T23:26:09.740Z,60.00
2023-08-21T23:31:14.425Z,60.00
2023-08-21T23:36:17.659Z,60.50
2023-08-21T23:41:21.402Z,61.00
2023-08-21T23:46:26.266Z,61.10
2023-08-21T23:51:29.658Z,62.00
2023-08-21T23:56:33.054Z,62.80
